createdAt,value
2023-05-24T00:00:11.383Z,96964.38
2023-05-24T00:02:42.148Z,96963.91
2023-05-24T00:05:11.635Z,96966.69
2023-05-24T00:07:41.704Z,96967.16
2023-05-24T00:10:12.027Z,96968.31
2023-05-24T00:12:40.780Z,96964.06
2023-05-24T00:15:10.607Z,96972.09
2023-05-24T00:17:41.542Z,96975.53
2023-05-24T00:20:14.420Z,96979.31
2023-05-24T00:22:44.784Z,96976.50
2023-05-24T00:25:13.505Z,96979.97
2023-05-24T00:27:42.356Z,96988.19
2023-05-24T00:30:11.495Z,96997.69
2023-05-24T00:32:40.351Z,96989.16
2023-05-24T00:35:10.106Z,96990.66
2023-05-24T00:37:42.145Z,96990.81
2023-05-24T00:40:13.603Z,96988.69
2023-05-24T00:42:42.607Z,96993.94
2023-05-24T00:45:12.211Z,96989.34
2023-05-24T00:47:41.981Z,96981.94
2023-05-24T00:50:18.637Z,96987.03
2023-05-24T00:52:51.420Z,96981.94
2023-05-24T00:55:22.235Z,96980.13
2023-05-24T00:57:52.730Z,96984.56
2023-05-24T01:00:21.972Z,96988.19
2023-05-24T01:02:52.374Z,96981.16
2023-05-24T01:05:21.720Z,96985.72
2023-05-24T01:08:00.185Z,96983.09
2023-05-24T01:10:36.650Z,96975.56
2023-05-24T01:13:11.374Z,96981.44
2023-05-24T01:15:49.065Z,96985.25
2023-05-24T01:18:26.312Z,96979.31
2023-05-24T01:21:07.850Z,96979.16
2023-05-24T01:23:48.456Z,96975.06
2023-05-24T01:26:32.266Z,96972.28
2023-05-24T01:29:03.704Z,96974.91
2023-05-24T01:31:32.607Z,96966.31
2023-05-24T01:34:02.230Z,96971.09
2023-05-24T01:36:30.942Z,96969.28
2023-05-24T01:38:59.918Z,96969.44
2023-05-24T01:41:39.018Z,96970.63
2023-05-24T01:44:20.467Z,96971.59
2023-05-24T01:46:55.194Z,96967.31
2023-05-24T01:49:28.623Z,96961.09
2023-05-24T01:52:03.075Z,96958.31
2023-05-24T01:54:38.502Z,96968.00
2023-05-24T01:57:10.292Z,96962.91
2023-05-24T01:59:43.254Z,96969.31
2023-05-24T02:02:12.732Z,96973.75
2023-05-24T02:04:42.304Z,96979.16
2023-05-24T02:07:11.050Z,96973.06
2023-05-24T02:09:39.711Z,96977.34
2023-05-24T02:12:09.808Z,96980.13
2023-05-24T02:14:39.294Z,96976.84
2023-05-24T02:17:09.678Z,96975.22
2023-05-24T02:19:38.507Z,96983.88
2023-05-24T02:22:08.576Z,96977.03
2023-05-24T02:24:40.458Z,96978.00
2023-05-24T02:27:09.443Z,96972.09
2023-05-24T02:29:38.573Z,96968.47
2023-05-24T02:32:09.229Z,96969.78
2023-05-24T02:34:37.960Z,96964.56
2023-05-24T02:37:06.963Z,96966.34
2023-05-24T02:39:35.740Z,96963.22
2023-05-24T02:42:06.016Z,96956.69
2023-05-24T02:44:34.744Z,96962.75
2023-05-24T02:47:03.607Z,96957.81
2023-05-24T02:49:33.763Z,96958.00
2023-05-24T02:52:02.466Z,96953.56
2023-05-24T02:54:31.921Z,96944.19
2023-05-24T02:57:01.690Z,96949.28
2023-05-24T02:59:31.297Z,96949.59
2023-05-24T03:02:00.380Z,96950.63
2023-05-24T03:04:29.194Z,96948.16
2023-05-24T03:06:59.642Z,96941.09
2023-05-24T03:09:28.745Z,96940.44
2023-05-24T03:11:57.453Z,96939.44
2023-05-24T03:14:26.151Z,96936.19
2023-05-24T03:16:54.934Z,96932.59
2023-05-24T03:19:24.491Z,96938.81
2023-05-24T03:21:53.627Z,96939.94
2023-05-24T03:24:23.685Z,96938.97
2023-05-24T03:26:52.369Z,96945.03
2023-05-24T03:29:21.100Z,96953.22
2023-05-24T03:31:50.556Z,96947.81
2023-05-24T03:34:19.598Z,96943.72
2023-05-24T03:36:48.362Z,96944.53
2023-05-24T03:39:17.354Z,96938.66
2023-05-24T03:42:06.489Z,96944.69
2023-05-24T03:44:35.517Z,96950.09
2023-05-24T03:47:04.336Z,96959.47
2023-05-24T03:49:33.473Z,96955.34
2023-05-24T03:52:03.361Z,96956.84
2023-05-24T03:54:32.335Z,96957.97
2023-05-24T03:57:01.795Z,96954.53
2023-05-24T03:59:32.408Z,96960.75
2023-05-24T04:02:01.118Z,96959.78
2023-05-24T04:04:30.234Z,96959.13
2023-05-24T04:06:59.463Z,96959.13
2023-05-24T04:09:28.181Z,96955.69
2023-05-24T04:11:57.737Z,96956.50
2023-05-24T04:14:26.470Z,96952.56
2023-05-24T04:16:57.709Z,96959.94
2023-05-24T04:19:26.506Z,96947.31
2023-05-24T04:21:55.167Z,96950.28
2023-05-24T04:24:23.821Z,96947.00
2023-05-24T04:26:52.490Z,96957.34
2023-05-24T04:29:21.278Z,96958.31
2023-05-24T04:31:50.145Z,96959.28
2023-05-24T04:34:22.379Z,96962.41
2023-05-24T04:36:53.211Z,96951.09
2023-05-24T04:39:21.998Z,96953.88
2023-05-24T04:41:53.227Z,96957.97
2023-05-24T04:44:22.039Z,96954.53
2023-05-24T04:46:50.944Z,96964.03
2023-05-24T04:49:20.990Z,96967.34
2023-05-24T04:51:49.888Z,96974.38
2023-05-24T04:54:18.531Z,96967.34
2023-05-24T04:56:47.194Z,96969.63
2023-05-24T04:59:15.941Z,96977.34
2023-05-24T05:01:44.920Z,96973.88
2023-05-24T05:04:13.748Z,96966.16
2023-05-24T05:06:44.902Z,96967.00
2023-05-24T05:09:15.075Z,96974.03
2023-05-24T05:11:43.882Z,96972.25
2023-05-24T05:14:12.734Z,96973.22
2023-05-24T05:16:42.344Z,96974.03
2023-05-24T05:19:11.107Z,96979.78
2023-05-24T05:21:40.052Z,96979.78
2023-05-24T05:24:10.314Z,96988.47
2023-05-24T05:26:39.019Z,96985.03
2023-05-24T05:29:07.741Z,96982.25
2023-05-24T05:31:36.661Z,96982.25
2023-05-24T05:34:09.727Z,96985.69
2023-05-24T05:36:40.932Z,96996.81
2023-05-24T05:39:11.535Z,96990.78
2023-05-24T05:41:45.767Z,96985.53
2023-05-24T05:44:17.565Z,96988.97
2023-05-24T05:46:46.571Z,96982.75
2023-05-24T05:49:15.974Z,96987.81
2023-05-24T05:51:44.629Z,96992.09
2023-05-24T05:54:18.375Z,96988.97
2023-05-24T05:56:48.207Z,96984.38
2023-05-24T05:59:17.431Z,96987.00
2023-05-24T06:01:47.623Z,96985.84
2023-05-24T06:04:16.646Z,96991.09
2023-05-24T06:06:48.460Z,96992.91
2023-05-24T06:09:18.613Z,96998.97
2023-05-24T06:11:47.298Z,96998.66
2023-05-24T06:14:18.621Z,97004.88
2023-05-24T06:16:48.275Z,97001.41
2023-05-24T06:19:17.093Z,97005.84
2023-05-24T06:21:48.265Z,97003.41
2023-05-24T06:24:20.742Z,97000.13
2023-05-24T06:26:51.702Z,97003.56
2023-05-24T06:29:21.992Z,97000.63
2023-05-24T06:31:51.356Z,97004.88
2023-05-24T06:34:21.651Z,96998.81
2023-05-24T06:36:51.745Z,97021.44
2023-05-24T06:39:21.912Z,97020.78
2023-05-24T06:41:51.496Z,97018.81
2023-05-24T06:44:32.215Z,97023.72
2023-05-24T06:47:01.030Z,97028.97
2023-05-24T06:49:29.802Z,97025.03
2023-05-24T06:52:01.581Z,97032.91
2023-05-24T06:54:31.805Z,97038.16
2023-05-24T06:57:00.806Z,97041.44
2023-05-24T06:59:29.820Z,97048.34
2023-05-24T07:02:00.593Z,97039.63
2023-05-24T07:04:31.682Z,97040.47
2023-05-24T07:07:00.372Z,97045.56
2023-05-24T07:09:29.157Z,97044.56
2023-05-24T07:11:59.555Z,97045.88
2023-05-24T07:14:29.157Z,97049.66
2023-05-24T07:17:00.033Z,97042.25
2023-05-24T07:19:29.896Z,97033.09
2023-05-24T07:21:58.834Z,97028.50
2023-05-24T07:24:27.510Z,97020.63
2023-05-24T07:26:57.754Z,97021.47
2023-05-24T07:29:27.904Z,97017.03
2023-05-24T07:31:58.201Z,97015.88
2023-05-24T07:34:30.214Z,97015.88
2023-05-24T07:37:00.788Z,97020.81
2023-05-24T07:39:29.707Z,97008.50
2023-05-24T07:41:58.608Z,97015.06
2023-05-24T07:44:29.593Z,97022.09
2023-05-24T07:46:58.285Z,97022.78
2023-05-24T07:49:27.226Z,97031.28
2023-05-24T07:51:58.055Z,97031.28
2023-05-24T07:54:26.711Z,97035.41
2023-05-24T07:56:55.444Z,97044.94
2023-05-24T07:59:24.280Z,97050.31
2023-05-24T08:01:54.441Z,97046.59
2023-05-24T08:04:23.986Z,97048.41
2023-05-24T08:06:52.775Z,97049.84
2023-05-24T08:09:22.689Z,97041.97
2023-05-24T08:11:51.542Z,97046.09
2023-05-24T08:14:20.222Z,97039.06
2023-05-24T08:16:48.953Z,97038.06
2023-05-24T08:19:19.482Z,97042.50
2023-05-24T08:21:48.299Z,97044.16
2023-05-24T08:24:17.185Z,97039.53
2023-05-24T08:26:45.862Z,97041.19
2023-05-24T08:29:14.602Z,97049.22
2023-05-24T08:31:43.435Z,97042.16
2023-05-24T08:34:12.891Z,97039.38
2023-05-24T08:36:43.997Z,97045.44
2023-05-24T08:39:12.769Z,97042.66
2023-05-24T08:41:42.379Z,97054.78
2023-05-24T08:44:11.863Z,97050.34
2023-05-24T08:46:40.770Z,97047.72
2023-05-24T08:49:12.798Z,97061.69
2023-05-24T08:51:43.014Z,97045.94
2023-05-24T08:54:13.872Z,97044.13
2023-05-24T08:56:42.897Z,97042.31
2023-05-24T08:59:13.615Z,97045.78
2023-05-24T09:01:43.174Z,97044.78
2023-05-24T09:04:13.177Z,97043.97
2023-05-24T09:06:45.891Z,97049.84
2023-05-24T09:09:17.025Z,97041.19
2023-05-24T09:11:48.658Z,97046.25
2023-05-24T09:14:18.015Z,97040.03
2023-05-24T09:16:47.373Z,97034.94
2023-05-24T09:19:17.320Z,97039.19
2023-05-24T09:21:47.878Z,97034.94
2023-05-24T09:24:17.238Z,97036.56
2023-05-24T09:26:46.605Z,97029.38
2023-05-24T09:29:15.420Z,97038.53
2023-05-24T09:31:44.292Z,97037.56
2023-05-24T09:34:16.683Z,97044.28
2023-05-24T09:36:49.675Z,97040.50
2023-05-24T09:39:21.783Z,97049.69
2023-05-24T09:41:57.387Z,97046.41
2023-05-24T09:44:26.892Z,97041.00
2023-05-24T09:46:56.211Z,97047.75
2023-05-24T09:49:24.930Z,97042.81
2023-05-24T09:51:55.287Z,97042.66
2023-05-24T09:54:25.962Z,97045.44
2023-05-24T09:56:54.654Z,97043.78
2023-05-24T09:59:24.009Z,97034.25
2023-05-24T10:01:58.478Z,97037.22
2023-05-24T10:04:34.043Z,97033.63
2023-05-24T10:07:05.277Z,97045.75
2023-05-24T10:09:35.044Z,97033.47
2023-05-24T10:12:05.604Z,97032.63
2023-05-24T10:14:36.313Z,97041.50
2023-05-24T10:17:06.352Z,97037.88
2023-05-24T10:19:35.245Z,97038.53
2023-05-24T10:22:08.960Z,97032.63
2023-05-24T10:24:41.873Z,97032.63
2023-05-24T10:27:16.178Z,97026.56
2023-05-24T10:29:50.151Z,97027.38
2023-05-24T10:32:20.368Z,97014.41
2023-05-24T10:34:49.684Z,97019.00
2023-05-24T10:37:20.043Z,97021.47
2023-05-24T10:39:48.777Z,97031.97
2023-05-24T10:42:18.219Z,97030.50
2023-05-24T10:44:47.300Z,97032.13
2023-05-24T10:47:17.210Z,97030.31
2023-05-24T10:49:51.512Z,97020.66
2023-05-24T10:52:21.786Z,97019.00
2023-05-24T10:55:08.203Z,97034.94
2023-05-24T10:57:37.317Z,97030.66
2023-05-24T11:00:35.775Z,97020.81
2023-05-24T11:03:08.996Z,97022.28
2023-05-24T11:05:51.163Z,97017.88
2023-05-24T11:08:25.922Z,97015.25
2023-05-24T11:11:23.365Z,97027.53
2023-05-24T11:13:58.795Z,97020.81
2023-05-24T11:16:35.846Z,97019.00
2023-05-24T11:19:14.229Z,97031.16
2023-05-24T11:21:45.675Z,97023.13
2023-05-24T11:24:17.741Z,97026.56
2023-05-24T11:26:47.186Z,97022.28
2023-05-24T11:29:18.305Z,97030.16
2023-05-24T11:31:50.786Z,97030.31
2023-05-24T11:34:19.793Z,97028.69
2023-05-24T11:36:50.134Z,97024.59
2023-05-24T11:39:20.750Z,97012.44
2023-05-24T11:41:49.692Z,97025.56
2023-05-24T11:44:19.675Z,97024.44
2023-05-24T11:46:48.844Z,97029.84
2023-05-24T11:49:19.187Z,97033.78
2023-05-24T11:51:47.961Z,97031.16
2023-05-24T11:54:16.924Z,97025.06
2023-05-24T11:56:48.742Z,97025.91
2023-05-24T11:59:20.212Z,97030.31
2023-05-24T12:01:49.010Z,97025.06
2023-05-24T12:04:17.780Z,97020.50
2023-05-24T12:06:46.585Z,97024.91
2023-05-24T12:09:18.213Z,97025.06
2023-05-24T12:11:50.722Z,97024.09
2023-05-24T12:14:20.968Z,97025.06
2023-05-24T12:16:50.365Z,97019.47
2023-05-24T12:19:32.548Z,97021.47
2023-05-24T12:22:05.285Z,97012.94
2023-05-24T12:24:34.349Z,97022.59
2023-05-24T12:27:07.892Z,97020.31
2023-05-24T12:29:38.871Z,97022.31
2023-05-24T12:32:12.601Z,97023.09
2023-05-24T12:34:42.730Z,97027.38
2023-05-24T12:37:12.495Z,97018.53
2023-05-24T12:39:43.887Z,97018.53
2023-05-24T12:42:14.696Z,97013.44
2023-05-24T12:44:45.261Z,97011.63
2023-05-24T12:47:14.155Z,97007.88
2023-05-24T12:49:43.730Z,96995.53
2023-05-24T12:52:13.313Z,97000.63
2023-05-24T12:54:42.178Z,97010.31
2023-05-24T12:57:11.071Z,97008.50
2023-05-24T12:59:42.923Z,97006.03
2023-05-24T13:02:12.055Z,97002.28
2023-05-24T13:04:40.810Z,96997.50
2023-05-24T13:07:09.633Z,96992.91
2023-05-24T13:09:38.298Z,96994.53
2023-05-24T13:12:08.273Z,96985.84
2023-05-24T13:14:37.961Z,96982.88
2023-05-24T13:17:08.300Z,96983.22
2023-05-24T13:19:37.087Z,96993.91
2023-05-24T13:22:05.793Z,96988.00
2023-05-24T13:24:34.499Z,96987.19
2023-05-24T13:27:03.536Z,96983.72
2023-05-24T13:29:42.262Z,96984.72
2023-05-24T13:32:12.890Z,96984.91
2023-05-24T13:34:41.933Z,96978.00
2023-05-24T13:37:10.708Z,96977.34
2023-05-24T13:39:39.638Z,96980.97
2023-05-24T13:42:09.224Z,96980.31
2023-05-24T13:44:38.597Z,96984.88
2023-05-24T13:47:08.741Z,96979.81
2023-05-24T13:49:39.105Z,96979.97
2023-05-24T13:52:08.012Z,96978.34
2023-05-24T13:54:36.699Z,96985.38
2023-05-24T13:57:06.804Z,96982.13
2023-05-24T13:59:35.461Z,96988.34
2023-05-24T14:02:04.413Z,96994.72
2023-05-24T14:04:33.201Z,96991.31
2023-05-24T14:07:03.879Z,96994.91
2023-05-24T14:09:32.679Z,96995.06
2023-05-24T14:12:03.610Z,96995.06
2023-05-24T14:17:04.086Z,97003.91
2023-05-24T14:19:34.120Z,97004.88
2023-05-24T14:22:04.281Z,97004.25
2023-05-24T14:24:32.925Z,96997.34
2023-05-24T14:27:01.666Z,97000.78
2023-05-24T14:29:30.381Z,96999.16
2023-05-24T14:31:59.105Z,96990.44
2023-05-24T14:34:27.997Z,96999.97
2023-05-24T14:36:56.648Z,96994.06
2023-05-24T14:39:26.780Z,96996.69
2023-05-24T14:41:55.753Z,96982.75
2023-05-24T14:44:24.454Z,96985.38
2023-05-24T14:46:55.264Z,96994.25
2023-05-24T14:49:24.648Z,96989.81
2023-05-24T14:51:53.347Z,96984.56
2023-05-24T14:54:22.650Z,96989.00
2023-05-24T14:56:52.732Z,96983.91
2023-05-24T14:59:21.455Z,96988.31
2023-05-24T15:01:50.304Z,96990.13
2023-05-24T15:04:19.128Z,96987.66
2023-05-24T15:06:48.016Z,96982.59
2023-05-24T15:09:16.956Z,96985.22
2023-05-24T15:11:45.627Z,96981.78
2023-05-24T15:14:16.283Z,96983.56
2023-05-24T15:16:45.162Z,96980.78
2023-05-24T15:19:14.373Z,96989.66
2023-05-24T15:21:43.160Z,96981.63
2023-05-24T15:24:13.429Z,96986.03
2023-05-24T15:26:42.230Z,96979.97
2023-05-24T15:29:11.397Z,96968.66
2023-05-24T15:31:41.750Z,96975.69
2023-05-24T15:34:11.013Z,96977.50
2023-05-24T15:36:41.259Z,96974.06
2023-05-24T15:39:10.086Z,96965.34
2023-05-24T15:41:39.092Z,96971.59
2023-05-24T15:44:09.144Z,96977.03
2023-05-24T15:46:38.028Z,96970.13
2023-05-24T15:49:08.360Z,96972.91
2023-05-24T15:54:10.358Z,96967.84
2023-05-24T15:56:39.086Z,96964.41
2023-05-24T15:59:07.877Z,96961.59
2023-05-24T16:01:37.162Z,96958.16
2023-05-24T16:04:07.523Z,96951.91
2023-05-24T16:06:36.682Z,96956.19
2023-05-24T16:09:07.195Z,96957.00
2023-05-24T16:11:35.884Z,96959.78
2023-05-24T16:14:06.080Z,96958.16
2023-05-24T16:16:35.109Z,96953.91
2023-05-24T16:19:03.796Z,96953.38
2023-05-24T16:21:33.849Z,96948.66
2023-05-24T16:24:03.484Z,96947.66
2023-05-24T16:26:34.772Z,96943.72
2023-05-24T16:29:04.126Z,96947.66
2023-05-24T16:31:33.201Z,96947.00
2023-05-24T16:34:02.576Z,96954.06
2023-05-24T16:36:31.930Z,96945.03
2023-05-24T16:39:02.127Z,96944.03
2023-05-24T16:41:37.462Z,96951.09
2023-05-24T16:44:06.268Z,96944.88
2023-05-24T16:46:36.721Z,96950.28
2023-05-24T16:49:05.989Z,96950.09
2023-05-24T16:51:34.608Z,96945.34
2023-05-24T16:54:05.322Z,96949.25
2023-05-24T16:56:34.036Z,96947.31
2023-05-24T16:59:03.113Z,96945.16
2023-05-24T17:01:32.145Z,96954.69
2023-05-24T17:04:01.198Z,96948.09
2023-05-24T17:06:30.113Z,96947.78
2023-05-24T17:08:59.399Z,96939.91
2023-05-24T17:11:30.039Z,96935.75
2023-05-24T17:13:59.222Z,96940.84
2023-05-24T17:16:28.727Z,96940.66
2023-05-24T17:18:57.466Z,96945.09
2023-05-24T17:21:28.063Z,96942.78
2023-05-24T17:23:57.845Z,96944.91
2023-05-24T17:26:27.216Z,96948.53
2023-05-24T17:29:01.159Z,96956.88
2023-05-24T17:31:30.159Z,96951.47
2023-05-24T17:33:59.458Z,96956.38
2023-05-24T17:36:29.022Z,96964.09
2023-05-24T17:38:58.392Z,96955.75
2023-05-24T17:41:27.080Z,96961.81
2023-05-24T17:43:57.594Z,96959.16
2023-05-24T17:46:27.478Z,96956.72
2023-05-24T17:48:56.325Z,96951.63
2023-05-24T17:51:25.697Z,96956.06
2023-05-24T17:53:54.811Z,96962.78
2023-05-24T17:56:23.541Z,96955.75
2023-05-24T17:58:52.566Z,96966.88
2023-05-24T18:01:22.747Z,96961.63
2023-05-24T18:03:51.692Z,96964.44
2023-05-24T18:06:20.959Z,96961.16
2023-05-24T18:08:49.668Z,96959.50
2023-05-24T18:11:18.417Z,96963.78
2023-05-24T18:13:47.287Z,96962.59
2023-05-24T18:16:16.126Z,96958.38
2023-05-24T18:18:46.344Z,96972.47
2023-05-24T18:21:15.178Z,96973.09
2023-05-24T18:23:43.939Z,96970.00
2023-05-24T18:26:13.434Z,96967.56
2023-05-24T18:28:42.410Z,96970.00
2023-05-24T18:31:11.660Z,96968.19
2023-05-24T18:33:41.251Z,96972.81
2023-05-24T18:36:12.931Z,96975.09
2023-05-24T18:38:41.740Z,96970.69
2023-05-24T18:41:12.319Z,96974.31
2023-05-24T18:43:43.186Z,96970.22
2023-05-24T18:46:14.018Z,96964.47
2023-05-24T18:48:43.119Z,96964.00
2023-05-24T18:51:13.586Z,96966.97
2023-05-24T18:53:42.736Z,96967.13
2023-05-24T18:56:11.550Z,96968.28
2023-05-24T18:58:41.442Z,96971.25
2023-05-24T19:01:10.806Z,96973.06
2023-05-24T19:03:41.928Z,96975.34
2023-05-24T19:06:10.667Z,96978.13
2023-05-24T19:08:40.728Z,96976.53
2023-05-24T19:11:11.455Z,96978.31
2023-05-24T19:13:40.934Z,96987.84
2023-05-24T19:16:09.661Z,96981.09
2023-05-24T19:18:38.318Z,96996.19
2023-05-24T19:21:07.004Z,96991.91
2023-05-24T19:23:35.792Z,96994.53
2023-05-24T19:26:06.004Z,96998.97
2023-05-24T19:28:38.152Z,96998.81
2023-05-24T19:31:07.621Z,96999.78
2023-05-24T19:33:42.707Z,97007.34
2023-05-24T19:36:17.616Z,96999.47
2023-05-24T19:38:46.455Z,97003.25
2023-05-24T19:41:16.585Z,97017.84
2023-05-24T19:43:45.281Z,97015.72
2023-05-24T19:46:15.014Z,97019.00
2023-05-24T19:48:44.112Z,97019.66
2023-05-24T19:51:13.463Z,97025.56
2023-05-24T19:53:42.161Z,97029.19
2023-05-24T19:56:11.426Z,97037.38
2023-05-24T19:58:42.077Z,97035.75
2023-05-24T20:01:10.878Z,97042.16
2023-05-24T20:03:39.784Z,97043.31
2023-05-24T20:06:08.651Z,97044.28
2023-05-24T20:08:37.312Z,97048.88
2023-05-24T20:11:06.025Z,97049.84
2023-05-24T20:13:34.694Z,97046.59
2023-05-24T20:16:04.856Z,97044.94
2023-05-24T20:18:35.203Z,97043.16
2023-05-24T20:21:03.976Z,97038.22
2023-05-24T20:23:32.852Z,97042.66
2023-05-24T20:26:01.967Z,97048.06
2023-05-24T20:28:31.979Z,97051.00
2023-05-24T20:31:01.266Z,97062.53
2023-05-24T20:33:31.528Z,97052.81
2023-05-24T20:36:00.213Z,97053.81
2023-05-24T20:38:28.874Z,97056.75
2023-05-24T20:40:57.494Z,97060.19
2023-05-24T20:43:26.323Z,97057.72
2023-05-24T20:45:55.403Z,97064.97
2023-05-24T20:48:25.640Z,97062.34
2023-05-24T20:50:55.807Z,97065.94
2023-05-24T20:53:24.633Z,97053.78
2023-05-24T20:55:53.486Z,97059.19
2023-05-24T20:58:22.200Z,97061.31
2023-05-24T21:00:51.519Z,97062.31
2023-05-24T21:03:20.353Z,97064.09
2023-05-24T21:05:49.096Z,97063.75
2023-05-24T21:08:19.216Z,97065.75
2023-05-24T21:10:47.932Z,97057.88
2023-05-24T21:13:16.539Z,97058.03
2023-05-24T21:15:45.746Z,97068.84
2023-05-24T21:18:14.566Z,97066.88
2023-05-24T21:20:43.353Z,97066.06
2023-05-24T21:23:12.048Z,97065.59
2023-05-24T21:25:42.194Z,97065.41
2023-05-24T21:28:11.429Z,97065.59
2023-05-24T21:30:40.185Z,97063.94
2023-05-24T21:33:09.497Z,97070.00
2023-05-24T21:35:38.621Z,97078.53
2023-05-24T21:38:07.328Z,97070.81
2023-05-24T21:40:36.011Z,97073.09
2023-05-24T21:43:06.057Z,97066.88
2023-05-24T21:45:34.710Z,97068.84
2023-05-24T21:48:03.442Z,97077.69
2023-05-24T21:50:32.140Z,97068.84
2023-05-24T21:53:00.817Z,97074.09
2023-05-24T21:55:30.179Z,97076.72
2023-05-24T21:58:00.338Z,97081.13
2023-05-24T22:00:30.655Z,97082.13
2023-05-24T22:02:59.468Z,97084.25
2023-05-24T22:05:28.271Z,97084.25
2023-05-24T22:07:57.054Z,97086.53
2023-05-24T22:10:25.882Z,97087.72
2023-05-24T22:12:54.546Z,97083.44
2023-05-24T22:15:23.180Z,97079.84
2023-05-24T22:17:53.260Z,97079.84
2023-05-24T22:20:22.544Z,97079.50
2023-05-24T22:22:53.789Z,97080.97
2023-05-24T22:25:22.626Z,97075.22
2023-05-24T22:27:52.891Z,97079.84
2023-05-24T22:30:21.662Z,97080.13
2023-05-24T22:32:51.100Z,97081.13
2023-05-24T22:35:21.182Z,97076.69
2023-05-24T22:37:50.065Z,97081.44
2023-05-24T22:40:19.593Z,97080.59
2023-05-24T22:42:48.328Z,97080.78
2023-05-24T22:45:18.628Z,97081.63
2023-05-24T22:47:49.762Z,97082.59
2023-05-24T22:50:18.517Z,97080.94
2023-05-24T22:52:48.651Z,97082.59
2023-05-24T22:55:17.581Z,97080.94
2023-05-24T22:57:46.390Z,97083.72
2023-05-24T23:00:15.820Z,97087.50
2023-05-24T23:02:44.533Z,97087.19
2023-05-24T23:05:13.224Z,97084.88
2023-05-24T23:07:42.181Z,97088.16
2023-05-24T23:10:12.464Z,97080.44
2023-05-24T23:12:42.302Z,97084.72
2023-05-24T23:15:11.736Z,97086.50
2023-05-24T23:17:40.511Z,97084.19
2023-05-24T23:20:14.539Z,97090.28
2023-05-24T23:22:43.740Z,97099.94
2023-05-24T23:25:14.265Z,97104.53
2023-05-24T23:27:43.497Z,97096.66
2023-05-24T23:30:13.329Z,97102.06
2023-05-24T23:32:42.093Z,97103.88
2023-05-24T23:35:11.364Z,97102.38
2023-05-24T23:37:40.387Z,97111.06
2023-05-24T23:40:10.456Z,97106.66
2023-05-24T23:42:40.596Z,97101.72
2023-05-24T23:45:09.832Z,97099.91
2023-05-24T23:47:38.663Z,97098.09
2023-05-24T23:50:08.754Z,97093.88
2023-05-24T23:52:37.572Z,97099.09
2023-05-24T23:55:07.907Z,97098.44
2023-05-24T23:57:38.396Z,97100.56
